sensor_id;sensor_type;location;lat;lon;timestamp;pressure;altitude;pressure_sealevel;temperature;humidity
58223;BME280;44020;50.890;15.796;2023-02-02T00:08:12;96963.88;;;1.62;91.46
58223;BME280;44020;50.890;15.796;2023-02-02T00:11:01;96959.55;;;1.64;91.17
58223;BME280;44020;50.890;15.796;2023-02-02T00:14:55;96957.73;;;1.66;91.38
58223;BME280;44020;50.890;15.796;2023-02-02T00:17:37;96961.56;;;1.70;91.02
58223;BME280;44020;50.890;15.796;2023-02-02T00:23:48;96960.10;;;1.72;90.37
58223;BME280;44020;50.890;15.796;2023-02-02T00:26:21;96953.81;;;1.71;90.53
58223;BME280;44020;50.890;15.796;2023-02-02T00:32:39;96955.11;;;1.73;90.45
58223;BME280;44020;50.890;15.796;2023-02-02T00:35:17;96955.79;;;1.74;90.29
58223;BME280;44020;50.890;15.796;2023-02-02T00:38:18;96960.33;;;1.74;89.93
58223;BME280;44020;50.890;15.796;2023-02-02T00:41:00;96958.58;;;1.74;90.10
58223;BME280;44020;50.890;15.796;2023-02-02T00:43:47;96961.73;;;1.74;89.72
58223;BME280;44020;50.890;15.796;2023-02-02T00:46:54;96957.84;;;1.75;89.69
58223;BME280;44020;50.890;15.796;2023-02-02T00:49:57;96951.07;;;1.77;89.96
58223;BME280;44020;50.890;15.796;2023-02-02T00:53:05;96953.04;;;1.80;89.82
58223;BME280;44020;50.890;15.796;2023-02-02T00:55:44;96953.46;;;1.82;89.35
58223;BME280;44020;50.890;15.796;2023-02-02T00:58:18;96951.41;;;1.81;89.24
58223;BME280;44020;50.890;15.796;2023-02-02T01:01:26;96949.42;;;1.86;88.69
58223;BME280;44020;50.890;15.796;2023-02-02T01:11:15;96956.88;;;1.84;88.28
58223;BME280;44020;50.890;15.796;2023-02-02T01:24:15;96950.73;;;1.84;87.81
58223;BME280;44020;50.890;15.796;2023-02-02T01:34:51;96951.46;;;1.87;87.20
58223;BME280;44020;50.890;15.796;2023-02-02T01:37:31;96958.25;;;1.88;87.12
58223;BME280;44020;50.890;15.796;2023-02-02T01:40:17;96956.46;;;1.89;87.11
58223;BME280;44020;50.890;15.796;2023-02-02T01:46:47;96956.61;;;1.94;86.64
58223;BME280;44020;50.890;15.796;2023-02-02T01:56:29;96962.38;;;1.97;86.85
58223;BME280;44020;50.890;15.796;2023-02-02T02:02:43;96962.27;;;2.00;86.81
58223;BME280;44020;50.890;15.796;2023-02-02T02:05:31;96960.64;;;2.01;86.79
58223;BME280;44020;50.890;15.796;2023-02-02T02:12:35;96964.41;;;2.06;86.03
58223;BME280;44020;50.890;15.796;2023-02-02T02:15:42;96960.64;;;2.08;85.70
58223;BME280;44020;50.890;15.796;2023-02-02T02:26:02;96963.27;;;2.08;85.46
58223;BME280;44020;50.890;15.796;2023-02-02T02:36:11;96978.03;;;2.15;84.99
58223;BME280;44020;50.890;15.796;2023-02-02T02:39:26;96969.00;;;2.17;84.63
58223;BME280;44020;50.890;15.796;2023-02-02T03:06:10;96939.85;;;2.21;84.00
58223;BME280;44020;50.890;15.796;2023-02-02T03:12:55;96941.39;;;2.25;83.42
58223;BME280;44020;50.890;15.796;2023-02-02T03:22:52;96931.97;;;2.28;82.79
58223;BME280;44020;50.890;15.796;2023-02-02T03:25:49;96933.08;;;2.27;82.77
58223;BME280;44020;50.890;15.796;2023-02-02T03:28:58;96939.38;;;2.27;82.51
58223;BME280;44020;50.890;15.796;2023-02-02T03:31:28;96937.86;;;2.29;82.46
58223;BME280;44020;50.890;15.796;2023-02-02T03:37:54;96938.56;;;2.29;82.53
58223;BME280;44020;50.890;15.796;2023-02-02T03:50:51;96931.14;;;2.27;83.22
58223;BME280;44020;50.890;15.796;2023-02-02T03:53:55;96922.56;;;2.27;82.99
58223;BME280;44020;50.890;15.796;2023-02-02T04:03:17;96923.98;;;2.31;82.98
58223;BME280;44020;50.890;15.796;2023-02-02T04:09:16;96932.39;;;2.34;82.55
58223;BME280;44020;50.890;15.796;2023-02-02T04:25:48;96921.06;;;2.46;81.21
58223;BME280;44020;50.890;15.796;2023-02-02T04:31:40;96918.66;;;2.45;81.35
58223;BME280;44020;50.890;15.796;2023-02-02T04:34:07;96912.73;;;2.49;80.69
58223;BME280;44020;50.890;15.796;2023-02-02T04:43:07;96919.12;;;2.50;80.42
58223;BME280;44020;50.890;15.796;2023-02-02T04:45:56;96912.85;;;2.49;80.68
58223;BME280;44020;50.890;15.796;2023-02-02T05:01:58;96948.54;;;2.54;80.27
58223;BME280;44020;50.890;15.796;2023-02-02T05:04:34;96947.23;;;2.52;80.13
58223;BME280;44020;50.890;15.796;2023-02-02T05:16:21;96949.70;;;2.52;80.63
58223;BME280;44020;50.890;15.796;2023-02-02T05:21:45;96952.27;;;2.50;81.13
58223;BME280;44020;50.890;15.796;2023-02-02T05:24:27;96960.74;;;2.53;81.15
58223;BME280;44020;50.890;15.796;2023-02-02T05:26:56;96963.34;;;2.53;81.14
58223;BME280;44020;50.890;15.796;2023-02-02T05:29:41;96966.19;;;2.52;81.05
58223;BME280;44020;50.890;15.796;2023-02-02T05:32:07;96958.86;;;2.51;80.92
58223;BME280;44020;50.890;15.796;2023-02-02T05:34:35;96967.85;;;2.50;81.15
58223;BME280;44020;50.890;15.796;2023-02-02T05:37:11;96968.97;;;2.53;81.03
58223;BME280;44020;50.890;15.796;2023-02-02T05:39:42;96977.50;;;2.54;81.21
58223;BME280;44020;50.890;15.796;2023-02-02T05:42:28;96973.90;;;2.52;81.06
58223;BME280;44020;50.890;15.796;2023-02-02T05:45:05;96985.07;;;2.50;81.49
58223;BME280;44020;50.890;15.796;2023-02-02T05:47:32;96995.80;;;2.53;81.29
58223;BME280;44020;50.890;15.796;2023-02-02T05:53:48;97012.52;;;2.51;81.39
58223;BME280;44020;50.890;15.796;2023-02-02T06:00:02;97007.48;;;2.50;81.73
58223;BME280;44020;50.890;15.796;2023-02-02T06:02:29;97012.98;;;2.53;81.48
58223;BME280;44020;50.890;15.796;2023-02-02T06:04:57;97022.52;;;2.51;81.84
58223;BME280;44020;50.890;15.796;2023-02-02T06:07:33;97033.11;;;2.53;81.87
58223;BME280;44020;50.890;15.796;2023-02-02T06:13:17;97030.48;;;2.50;82.49
58223;BME280;44020;50.890;15.796;2023-02-02T06:15:55;97037.24;;;2.51;82.51
58223;BME280;44020;50.890;15.796;2023-02-02T06:18:51;97039.73;;;2.50;82.51
58223;BME280;44020;50.890;15.796;2023-02-02T06:27:15;97036.59;;;2.46;82.79
58223;BME280;44020;50.890;15.796;2023-02-02T06:29:46;97043.84;;;2.49;82.56
58223;BME280;44020;50.890;15.796;2023-02-02T06:33:00;97054.89;;;2.49;82.47
58223;BME280;44020;50.890;15.796;2023-02-02T06:38:56;97067.98;;;2.50;82.62
58223;BME280;44020;50.890;15.796;2023-02-02T06:48:13;97084.56;;;2.48;82.91
58223;BME280;44020;50.890;15.796;2023-02-02T06:58:45;97098.42;;;2.44;83.27
58223;BME280;44020;50.890;15.796;2023-02-02T07:04:26;97114.81;;;2.42;83.75
58223;BME280;44020;50.890;15.796;2023-02-02T07:10:29;97128.98;;;2.40;84.47
58223;BME280;44020;50.890;15.796;2023-02-02T07:23:35;97156.52;;;2.27;86.01
58223;BME280;44020;50.890;15.796;2023-02-02T07:33:03;97183.36;;;2.27;86.49
58223;BME280;44020;50.890;15.796;2023-02-02T07:36:00;97185.14;;;2.19;86.84
58223;BME280;44020;50.890;15.796;2023-02-02T07:45:13;97198.16;;;2.05;88.00
58223;BME280;44020;50.890;15.796;2023-02-02T07:48:11;97199.77;;;2.01;88.17
58223;BME280;44020;50.890;15.796;2023-02-02T08:00:59;97224.52;;;1.92;89.45
58223;BME280;44020;50.890;15.796;2023-02-02T08:04:08;97220.31;;;1.88;89.45
58223;BME280;44020;50.890;15.796;2023-02-02T08:13:03;97241.36;;;1.83;90.17
58223;BME280;44020;50.890;15.796;2023-02-02T08:15:50;97250.98;;;1.83;91.17
58223;BME280;44020;50.890;15.796;2023-02-02T08:18:30;97248.36;;;1.79;90.96
58223;BME280;44020;50.890;15.796;2023-02-02T08:20:59;97257.75;;;1.81;91.31
58223;BME280;44020;50.890;15.796;2023-02-02T08:23:27;97259.19;;;1.80;91.40
58223;BME280;44020;50.890;15.796;2023-02-02T08:26:32;97258.30;;;1.80;91.33
58223;BME280;44020;50.890;15.796;2023-02-02T08:29:06;97256.15;;;1.85;91.29
58223;BME280;44020;50.890;15.796;2023-02-02T08:34:59;97271.92;;;1.89;91.09
58223;BME280;44020;50.890;15.796;2023-02-02T08:37:27;97274.55;;;1.90;91.04
58223;BME280;44020;50.890;15.796;2023-02-02T08:39:54;97274.50;;;1.94;91.06
58223;BME280;44020;50.890;15.796;2023-02-02T08:42:25;97279.14;;;1.97;91.05
58223;BME280;44020;50.890;15.796;2023-02-02T08:44:52;97280.51;;;2.01;90.84
58223;BME280;44020;50.890;15.796;2023-02-02T08:47:19;97283.88;;;2.05;90.77
58223;BME280;44020;50.890;15.796;2023-02-02T08:49:50;97289.05;;;2.06;90.59
58223;BME280;44020;50.890;15.796;2023-02-02T08:52:38;97292.25;;;2.10;90.19
58223;BME280;44020;50.890;15.796;2023-02-02T08:55:14;97294.58;;;2.13;90.33
58223;BME280;44020;50.890;15.796;2023-02-02T08:57:47;97290.86;;;2.17;89.71
58223;BME280;44020;50.890;15.796;2023-02-02T09:00:37;97285.48;;;2.16;89.81
58223;BME280;44020;50.890;15.796;2023-02-02T09:03:25;97286.82;;;2.17;89.48
58223;BME280;44020;50.890;15.796;2023-02-02T09:06:02;97295.08;;;2.21;89.36
58223;BME280;44020;50.890;15.796;2023-02-02T09:08:29;97293.87;;;2.25;89.48
58223;BME280;44020;50.890;15.796;2023-02-02T09:11:19;97303.54;;;2.28;89.29
58223;BME280;44020;50.890;15.796;2023-02-02T09:13:54;97303.80;;;2.35;89.07
58223;BME280;44020;50.890;15.796;2023-02-02T09:16:23;97312.21;;;2.39;88.79
58223;BME280;44020;50.890;15.796;2023-02-02T09:18:51;97318.95;;;2.40;88.72
58223;BME280;44020;50.890;15.796;2023-02-02T09:21:25;97319.27;;;2.41;88.55
58223;BME280;44020;50.890;15.796;2023-02-02T09:24:10;97317.66;;;2.42;88.24
58223;BME280;44020;50.890;15.796;2023-02-02T09:26:44;97330.09;;;2.43;87.73
58223;BME280;44020;50.890;15.796;2023-02-02T09:29:15;97331.43;;;2.40;87.58
58223;BME280;44020;50.890;15.796;2023-02-02T09:31:48;97334.80;;;2.39;87.84
58223;BME280;44020;50.890;15.796;2023-02-02T09:37:13;97342.10;;;2.44;87.65
58223;BME280;44020;50.890;15.796;2023-02-02T09:39:41;97350.98;;;2.42;87.51
58223;BME280;44020;50.890;15.796;2023-02-02T09:42:21;97353.95;;;2.34;87.97
58223;BME280;44020;50.890;15.796;2023-02-02T09:44:59;97356.36;;;2.27;88.79
58223;BME280;44020;50.890;15.796;2023-02-02T09:51:05;97371.29;;;2.31;89.64
58223;BME280;44020;50.890;15.796;2023-02-02T09:53:57;97371.58;;;2.32;89.61
58223;BME280;44020;50.890;15.796;2023-02-02T10:02:17;97377.27;;;2.39;90.11
58223;BME280;44020;50.890;15.796;2023-02-02T10:04:55;97378.51;;;2.42;89.62
58223;BME280;44020;50.890;15.796;2023-02-02T10:07:33;97379.19;;;2.46;89.30
58223;BME280;44020;50.890;15.796;2023-02-02T10:10:38;97374.65;;;2.50;89.06
58223;BME280;44020;50.890;15.796;2023-02-02T10:13:24;97378.05;;;2.52;88.30
58223;BME280;44020;50.890;15.796;2023-02-02T10:16:02;97381.35;;;2.57;87.56
58223;BME280;44020;50.890;15.796;2023-02-02T10:19:02;97382.39;;;2.61;87.60
58223;BME280;44020;50.890;15.796;2023-02-02T10:25:13;97380.66;;;2.65;86.51
58223;BME280;44020;50.890;15.796;2023-02-02T10:31:10;97382.80;;;2.60;86.99
58223;BME280;44020;50.890;15.796;2023-02-02T10:36:59;97383.67;;;2.60;86.91
58223;BME280;44020;50.890;15.796;2023-02-02T10:45:50;97381.30;;;2.50;84.59
58223;BME280;44020;50.890;15.796;2023-02-02T10:48:55;97381.57;;;2.52;83.69
58223;BME280;44020;50.890;15.796;2023-02-02T10:51:29;97369.80;;;2.57;84.30
58223;BME280;44020;50.890;15.796;2023-02-02T10:54:00;97373.37;;;2.67;83.89
58223;BME280;44020;50.890;15.796;2023-02-02T11:03:18;97377.91;;;3.07;81.44
58223;BME280;44020;50.890;15.796;2023-02-02T11:05:52;97378.27;;;3.22;79.93
58223;BME280;44020;50.890;15.796;2023-02-02T11:08:59;97366.92;;;3.36;78.39
58223;BME280;44020;50.890;15.796;2023-02-02T11:11:41;97376.67;;;3.42;77.52
58223;BME280;44020;50.890;15.796;2023-02-02T11:14:39;97371.94;;;3.49;78.00
58223;BME280;44020;50.890;15.796;2023-02-02T11:17:41;97368.49;;;3.62;78.34
58223;BME280;44020;50.890;15.796;2023-02-02T11:23:34;97374.91;;;3.86;78.14
58223;BME280;44020;50.890;15.796;2023-02-02T11:26:03;97374.26;;;3.88;78.54
58223;BME280;44020;50.890;15.796;2023-02-02T11:28:54;97377.95;;;3.92;78.58
58223;BME280;44020;50.890;15.796;2023-02-02T11:32:33;97377.69;;;3.87;78.60
58223;BME280;44020;50.890;15.796;2023-02-02T11:35:27;97384.20;;;3.76;78.81
58223;BME280;44020;50.890;15.796;2023-02-02T11:38:30;97392.94;;;3.62;79.19
58223;BME280;44020;50.890;15.796;2023-02-02T11:41:08;97397.63;;;3.52;79.76
58223;BME280;44020;50.890;15.796;2023-02-02T11:47:23;97401.70;;;3.51;80.97
58223;BME280;44020;50.890;15.796;2023-02-02T11:49:52;97407.57;;;3.34;81.88
58223;BME280;44020;50.890;15.796;2023-02-02T11:52:23;97409.29;;;3.23;82.46
58223;BME280;44020;50.890;15.796;2023-02-02T11:55:19;97415.20;;;3.13;83.30
58223;BME280;44020;50.890;15.796;2023-02-02T12:01:48;97416.14;;;2.96;84.97
58223;BME280;44020;50.890;15.796;2023-02-02T12:03:52;97411.78;;;2.83;85.60
58223;BME280;44020;50.890;15.796;2023-02-02T12:06:48;97408.71;;;2.82;85.70
58223;BME280;44020;50.890;15.796;2023-02-02T12:09:26;97413.97;;;2.81;85.91
58223;BME280;44020;50.890;15.796;2023-02-02T12:12:05;97413.70;;;2.79;85.74
58223;BME280;44020;50.890;15.796;2023-02-02T12:17:56;97412.23;;;2.81;85.55
58223;BME280;44020;50.890;15.796;2023-02-02T12:21:36;97412.55;;;2.90;85.01
58223;BME280;44020;50.890;15.796;2023-02-02T12:26:36;97418.47;;;3.10;83.93
58223;BME280;44020;50.890;15.796;2023-02-02T12:41:54;97437.86;;;2.77;83.95
58223;BME280;44020;50.890;15.796;2023-02-02T12:47:27;97429.99;;;2.72;85.18
58223;BME280;44020;50.890;15.796;2023-02-02T13:02:35;97425.51;;;2.91;85.89
58223;BME280;44020;50.890;15.796;2023-02-02T13:08:19;97436.33;;;2.92;84.81
58223;BME280;44020;50.890;15.796;2023-02-02T13:10:52;97432.77;;;2.85;85.23
58223;BME280;44020;50.890;15.796;2023-02-02T13:13:41;97430.31;;;2.81;85.42
58223;BME280;44020;50.890;15.796;2023-02-02T13:16:10;97420.10;;;2.78;85.36
58223;BME280;44020;50.890;15.796;2023-02-02T13:21:55;97425.55;;;2.65;86.08
58223;BME280;44020;50.890;15.796;2023-02-02T13:24:44;97434.14;;;2.65;86.29
58223;BME280;44020;50.890;15.796;2023-02-02T13:27:18;97445.88;;;2.70;86.40
58223;BME280;44020;50.890;15.796;2023-02-02T13:29:57;97448.06;;;2.68;86.84
58223;BME280;44020;50.890;15.796;2023-02-02T13:32:31;97461.92;;;2.63;86.75
58223;BME280;44020;50.890;15.796;2023-02-02T13:37:57;97465.14;;;2.46;87.97
58223;BME280;44020;50.890;15.796;2023-02-02T13:40:38;97469.79;;;2.35;88.34
58223;BME280;44020;50.890;15.796;2023-02-02T13:43:44;97485.65;;;2.28;89.09
58223;BME280;44020;50.890;15.796;2023-02-02T13:46:21;97488.23;;;2.21;89.23
58223;BME280;44020;50.890;15.796;2023-02-02T13:49:28;97490.23;;;2.15;89.99
58223;BME280;44020;50.890;15.796;2023-02-02T13:52:49;97492.13;;;2.07;90.12
58223;BME280;44020;50.890;15.796;2023-02-02T13:55:50;97488.14;;;1.97;90.85
58223;BME280;44020;50.890;15.796;2023-02-02T13:58:51;97494.67;;;1.82;91.29
58223;BME280;44020;50.890;15.796;2023-02-02T14:01:24;97493.46;;;1.77;90.91
58223;BME280;44020;50.890;15.796;2023-02-02T14:10:28;97510.83;;;1.90;91.18
58223;BME280;44020;50.890;15.796;2023-02-02T14:14:05;97508.53;;;2.04;91.26
58223;BME280;44020;50.890;15.796;2023-02-02T14:16:42;97511.23;;;2.46;91.81
58223;BME280;44020;50.890;15.796;2023-02-02T14:22:47;97513.59;;;3.82;89.03
58223;BME280;44020;50.890;15.796;2023-02-02T14:25:45;97520.08;;;3.74;87.76
58223;BME280;44020;50.890;15.796;2023-02-02T14:28:52;97523.48;;;3.65;88.09
58223;BME280;44020;50.890;15.796;2023-02-02T14:31:28;97522.95;;;3.53;88.16
58223;BME280;44020;50.890;15.796;2023-02-02T14:42:58;97594.91;;;3.09;88.87
58223;BME280;44020;50.890;15.796;2023-02-02T14:48:46;97593.88;;;2.75;89.07
58223;BME280;44020;50.890;15.796;2023-02-02T14:51:19;97598.89;;;2.68;89.28
58223;BME280;44020;50.890;15.796;2023-02-02T14:53:55;97604.50;;;2.55;89.34
58223;BME280;44020;50.890;15.796;2023-02-02T14:56:48;97610.64;;;2.46;89.26
58223;BME280;44020;50.890;15.796;2023-02-02T14:59:43;97616.79;;;2.37;89.60
58223;BME280;44020;50.890;15.796;2023-02-02T15:02:33;97626.81;;;2.32;89.69
58223;BME280;44020;50.890;15.796;2023-02-02T15:17:41;97668.27;;;2.15;90.35
58223;BME280;44020;50.890;15.796;2023-02-02T15:25:19;97686.32;;;2.16;90.68
58223;BME280;44020;50.890;15.796;2023-02-02T15:27:56;97683.27;;;2.18;90.42
58223;BME280;44020;50.890;15.796;2023-02-02T15:37:14;97706.45;;;2.21;90.61
58223;BME280;44020;50.890;15.796;2023-02-02T15:40:22;97716.90;;;2.17;90.89
58223;BME280;44020;50.890;15.796;2023-02-02T15:43:04;97714.70;;;2.11;91.07
58223;BME280;44020;50.890;15.796;2023-02-02T15:45:54;97721.84;;;2.07;91.00
58223;BME280;44020;50.890;15.796;2023-02-02T15:58:38;97749.48;;;1.83;91.55
58223;BME280;44020;50.890;15.796;2023-02-02T16:01:17;97761.36;;;1.79;91.75
58223;BME280;44020;50.890;15.796;2023-02-02T16:04:16;97770.44;;;1.75;91.48
58223;BME280;44020;50.890;15.796;2023-02-02T16:10:34;97784.38;;;1.72;91.92
58223;BME280;44020;50.890;15.796;2023-02-02T16:18:17;97798.61;;;1.71;91.80
58223;BME280;44020;50.890;15.796;2023-02-02T16:28:26;97833.21;;;1.73;91.70
58223;BME280;44020;50.890;15.796;2023-02-02T16:30:59;97837.52;;;1.75;91.74
58223;BME280;44020;50.890;15.796;2023-02-02T16:34:02;97840.77;;;1.72;91.64
58223;BME280;44020;50.890;15.796;2023-02-02T16:36:31;97843.83;;;1.70;91.71
58223;BME280;44020;50.890;15.796;2023-02-02T16:49:31;97861.73;;;1.69;91.78
58223;BME280;44020;50.890;15.796;2023-02-02T16:55:29;97882.20;;;1.69;91.73
58223;BME280;44020;50.890;15.796;2023-02-02T16:58:43;97888.80;;;1.71;91.75
58223;BME280;44020;50.890;15.796;2023-02-02T17:01:56;97900.20;;;1.70;91.63
58223;BME280;44020;50.890;15.796;2023-02-02T17:05:05;97910.24;;;1.69;91.85
58223;BME280;44020;50.890;15.796;2023-02-02T17:08:24;97922.72;;;1.67;91.62
58223;BME280;44020;50.890;15.796;2023-02-02T17:18:27;97954.45;;;1.59;91.50
58223;BME280;44020;50.890;15.796;2023-02-02T17:25:12;97976.80;;;1.56;91.27
58223;BME280;44020;50.890;15.796;2023-02-02T17:34:22;98000.48;;;1.49;91.26
58223;BME280;44020;50.890;15.796;2023-02-02T17:38:02;98017.83;;;1.48;91.36
58223;BME280;44020;50.890;15.796;2023-02-02T17:44:01;98033.75;;;1.49;91.37
58223;BME280;44020;50.890;15.796;2023-02-02T18:58:23;98154.98;;;1.12;90.00
58223;BME280;44020;50.890;15.796;2023-02-02T19:00:52;98160.75;;;1.12;90.39
58223;BME280;44020;50.890;15.796;2023-02-02T19:03:19;98163.71;;;1.14;90.00
58223;BME280;44020;50.890;15.796;2023-02-02T19:05:46;98166.02;;;1.12;89.86
58223;BME280;44020;50.890;15.796;2023-02-02T19:08:32;98168.50;;;1.10;89.79
58223;BME280;44020;50.890;15.796;2023-02-02T19:11:08;98173.77;;;1.11;89.74
58223;BME280;44020;50.890;15.796;2023-02-02T19:13:37;98172.06;;;1.09;89.76
58223;BME280;44020;50.890;15.796;2023-02-02T19:16:16;98174.91;;;1.06;89.64
58223;BME280;44020;50.890;15.796;2023-02-02T19:18:45;98176.87;;;1.04;89.84
58223;BME280;44020;50.890;15.796;2023-02-02T19:21:13;98178.84;;;1.03;89.77
58223;BME280;44020;50.890;15.796;2023-02-02T19:23:43;98180.21;;;1.03;89.96
58223;BME280;44020;50.890;15.796;2023-02-02T19:26:22;98182.98;;;1.05;89.62
58223;BME280;44020;50.890;15.796;2023-02-02T19:28:51;98189.10;;;1.05;89.65
58223;BME280;44020;50.890;15.796;2023-02-02T19:31:19;98190.19;;;1.03;89.48
58223;BME280;44020;50.890;15.796;2023-02-02T19:33:50;98191.06;;;1.03;89.57
58223;BME280;44020;50.890;15.796;2023-02-02T19:36:20;98196.30;;;1.04;89.77
58223;BME280;44020;50.890;15.796;2023-02-02T19:38:50;98197.31;;;1.06;89.82
58223;BME280;44020;50.890;15.796;2023-02-02T19:41:23;98197.33;;;1.05;89.48
58223;BME280;44020;50.890;15.796;2023-02-02T19:43:57;98190.86;;;1.05;89.49
58223;BME280;44020;50.890;15.796;2023-02-02T19:46:26;98192.08;;;1.05;89.25
58223;BME280;44020;50.890;15.796;2023-02-02T19:49:21;98200.17;;;1.03;89.42
58223;BME280;44020;50.890;15.796;2023-02-02T19:51:52;98197.78;;;1.01;89.26
58223;BME280;44020;50.890;15.796;2023-02-02T19:59:49;98198.83;;;1.02;89.25
58223;BME280;44020;50.890;15.796;2023-02-02T20:02:40;98201.94;;;1.02;89.32
58223;BME280;44020;50.890;15.796;2023-02-02T20:07:38;98203.07;;;1.00;88.89
58223;BME280;44020;50.890;15.796;2023-02-02T20:10:36;98201.48;;;0.99;89.06
58223;BME280;44020;50.890;15.796;2023-02-02T20:13:23;98204.02;;;0.96;88.48
58223;BME280;44020;50.890;15.796;2023-02-02T20:15:53;98211.60;;;0.94;88.63
58223;BME280;44020;50.890;15.796;2023-02-02T20:18:37;98212.74;;;0.90;88.55
58223;BME280;44020;50.890;15.796;2023-02-02T20:21:18;98212.20;;;0.83;88.51
58223;BME280;44020;50.890;15.796;2023-02-02T20:23:46;98214.53;;;0.80;88.30
58223;BME280;44020;50.890;15.796;2023-02-02T20:26:25;98221.27;;;0.76;88.25
58223;BME280;44020;50.890;15.796;2023-02-02T20:28:55;98227.48;;;0.72;88.00
58223;BME280;44020;50.890;15.796;2023-02-02T20:31:37;98229.17;;;0.67;88.09
58223;BME280;44020;50.890;15.796;2023-02-02T20:34:26;98232.11;;;0.60;88.02
58223;BME280;44020;50.890;15.796;2023-02-02T20:37:03;98235.36;;;0.55;88.22
58223;BME280;44020;50.890;15.796;2023-02-02T20:39:44;98236.22;;;0.48;87.91
58223;BME280;44020;50.890;15.796;2023-02-02T20:42:14;98235.08;;;0.44;88.21
58223;BME280;44020;50.890;15.796;2023-02-02T20:44:41;98240.39;;;0.42;88.18
58223;BME280;44020;50.890;15.796;2023-02-02T20:47:09;98242.05;;;0.37;87.93
58223;BME280;44020;50.890;15.796;2023-02-02T20:49:38;98246.65;;;0.34;88.08
58223;BME280;44020;50.890;15.796;2023-02-02T20:52:07;98243.70;;;0.33;88.16
58223;BME280;44020;50.890;15.796;2023-02-02T20:54:38;98243.38;;;0.32;87.98
58223;BME280;44020;50.890;15.796;2023-02-02T20:57:06;98242.20;;;0.30;87.99
58223;BME280;44020;50.890;15.796;2023-02-02T20:59:35;98245.89;;;0.28;87.90
58223;BME280;44020;50.890;15.796;2023-02-02T21:02:03;98253.11;;;0.26;87.90
58223;BME280;44020;50.890;15.796;2023-02-02T21:04:31;98251.55;;;0.25;87.86
58223;BME280;44020;50.890;15.796;2023-02-02T21:06:59;98254.89;;;0.24;87.74
58223;BME280;44020;50.890;15.796;2023-02-02T21:09:26;98252.84;;;0.23;87.71
58223;BME280;44020;50.890;15.796;2023-02-02T21:11:54;98252.85;;;0.21;87.73
58223;BME280;44020;50.890;15.796;2023-02-02T21:14:21;98254.27;;;0.20;87.63
58223;BME280;44020;50.890;15.796;2023-02-02T21:16:49;98256.08;;;0.17;87.69
58223;BME280;44020;50.890;15.796;2023-02-02T21:19:18;98251.30;;;0.12;87.50
58223;BME280;44020;50.890;15.796;2023-02-02T21:21:45;98256.77;;;0.09;87.50
58223;BME280;44020;50.890;15.796;2023-02-02T21:24:13;98258.17;;;0.09;87.55
58223;BME280;44020;50.890;15.796;2023-02-02T21:26:41;98259.06;;;0.08;87.61
58223;BME280;44020;50.890;15.796;2023-02-02T21:29:09;98258.96;;;0.05;87.48
58223;BME280;44020;50.890;15.796;2023-02-02T21:31:37;98260.72;;;0.04;87.46
58223;BME280;44020;50.890;15.796;2023-02-02T21:34:06;98263.88;;;0.03;87.53
58223;BME280;44020;50.890;15.796;2023-02-02T21:36:42;98262.61;;;0.05;87.63
58223;BME280;44020;50.890;15.796;2023-02-02T21:39:21;98261.04;;;0.06;87.60
58223;BME280;44020;50.890;15.796;2023-02-02T21:44:41;98259.61;;;0.06;87.70
58223;BME280;44020;50.890;15.796;2023-02-02T21:47:35;98258.95;;;0.05;87.82
58223;BME280;44020;50.890;15.796;2023-02-02T21:50:20;98251.94;;;0.06;87.82
58223;BME280;44020;50.890;15.796;2023-02-02T21:52:50;98250.20;;;0.05;87.88
58223;BME280;44020;50.890;15.796;2023-02-02T21:57:47;98248.12;;;0.04;87.76
58223;BME280;44020;50.890;15.796;2023-02-02T22:00:22;98245.39;;;0.02;87.76
58223;BME280;44020;50.890;15.796;2023-02-02T22:02:50;98248.02;;;0.01;87.61
58223;BME280;44020;50.890;15.796;2023-02-02T22:05:32;98247.19;;;-0.02;87.51
58223;BME280;44020;50.890;15.796;2023-02-02T22:08:05;98251.48;;;-0.07;87.51
58223;BME280;44020;50.890;15.796;2023-02-02T22:10:36;98252.95;;;-0.10;87.51
58223;BME280;44020;50.890;15.796;2023-02-02T22:13:19;98252.98;;;-0.12;87.64
58223;BME280;44020;50.890;15.796;2023-02-02T22:15:48;98254.76;;;-0.14;87.74
58223;BME280;44020;50.890;15.796;2023-02-02T22:18:20;98249.88;;;-0.14;87.85
58223;BME280;44020;50.890;15.796;2023-02-02T22:20:50;98250.24;;;-0.15;87.62
58223;BME280;44020;50.890;15.796;2023-02-02T22:23:23;98250.10;;;-0.17;87.83
58223;BME280;44020;50.890;15.796;2023-02-02T22:25:53;98246.27;;;-0.18;87.72
58223;BME280;44020;50.890;15.796;2023-02-02T22:28:36;98247.85;;;-0.18;87.84
58223;BME280;44020;50.890;15.796;2023-02-02T22:31:07;98245.77;;;-0.18;87.83
58223;BME280;44020;50.890;15.796;2023-02-02T22:33:35;98245.56;;;-0.17;87.91
58223;BME280;44020;50.890;15.796;2023-02-02T22:36:03;98245.70;;;-0.14;88.08
58223;BME280;44020;50.890;15.796;2023-02-02T22:38:30;98247.35;;;-0.10;88.37
58223;BME280;44020;50.890;15.796;2023-02-02T22:40:58;98246.09;;;-0.08;88.00
58223;BME280;44020;50.890;15.796;2023-02-02T22:43:25;98249.34;;;-0.05;88.03
58223;BME280;44020;50.890;15.796;2023-02-02T22:45:52;98244.59;;;-0.03;88.20
58223;BME280;44020;50.890;15.796;2023-02-02T22:48:20;98247.70;;;-0.01;88.37
58223;BME280;44020;50.890;15.796;2023-02-02T22:50:47;98252.23;;;-0.00;88.08
58223;BME280;44020;50.890;15.796;2023-02-02T22:53:14;98256.23;;;0.00;88.09
58223;BME280;44020;50.890;15.796;2023-02-02T22:55:42;98255.05;;;-0.02;88.16
58223;BME280;44020;50.890;15.796;2023-02-02T22:58:09;98259.57;;;-0.01;88.17
58223;BME280;44020;50.890;15.796;2023-02-02T23:00:36;98261.54;;;-0.03;87.80
58223;BME280;44020;50.890;15.796;2023-02-02T23:03:04;98266.92;;;-0.11;87.90
58223;BME280;44020;50.890;15.796;2023-02-02T23:05:31;98269.35;;;-0.10;88.26
58223;BME280;44020;50.890;15.796;2023-02-02T23:07:58;98268.64;;;-0.09;88.27
58223;BME280;44020;50.890;15.796;2023-02-02T23:10:26;98267.02;;;-0.06;88.53
58223;BME280;44020;50.890;15.796;2023-02-02T23:12:55;98266.67;;;-0.07;88.46
58223;BME280;44020;50.890;15.796;2023-02-02T23:15:25;98270.89;;;-0.08;88.47